Time;durP1;ratioP1;P1;durP2;ratioP2;P2;SDS_P1;SDS_P2;PMS_P1;PMS_P2;Temp;Humidity;BMP_temperature;BMP_pressure;BME280_temperature;BME280_humidity;BME280_pressure;Samples;Min_cycle;Max_cycle;Signal;HPM_P1;HPM_P2
2021/01/17 00:00:45;;;;;;;3.80;3.50;;;19.80;41.40;;;;;;4983624;28;20484;-70
2021/01/17 00:03:11;;;;;;;3.80;3.50;;;19.80;41.20;;;;;;4991138;28;20493;-71
2021/01/17 00:05:38;;;;;;;4.57;4.30;;;19.70;41.30;;;;;;4991101;28;20472;-70
2021/01/17 00:08:08;;;;;;;3.63;3.27;;;19.60;41.30;;;;;;4993399;28;20496;-71
2021/01/17 00:10:35;;;;;;;3.43;3.13;;;19.70;41.30;;;;;;4988027;28;20485;-70
2021/01/17 00:13:02;;;;;;;3.87;3.67;;;19.70;41.50;;;;;;4979584;28;20512;-70
2021/01/17 00:15:28;;;;;;;4.03;3.73;;;19.70;41.60;;;;;;4991849;28;20550;-71
2021/01/17 00:17:54;;;;;;;3.23;3.03;;;19.60;41.50;;;;;;4995607;28;20483;-70
2021/01/17 00:20:21;;;;;;;3.73;3.43;;;19.60;41.50;;;;;;4993091;28;20546;-71
2021/01/17 00:22:48;;;;;;;3.97;3.70;;;19.70;41.60;;;;;;4990805;28;20495;-70
2021/01/17 00:25:16;;;;;;;3.97;3.67;;;19.70;41.50;;;;;;4995209;28;20487;-70
2021/01/17 00:27:43;;;;;;;3.97;3.77;;;19.70;41.60;;;;;;4996290;28;20484;-70
2021/01/17 00:30:10;;;;;;;3.40;3.30;;;19.60;41.60;;;;;;4989983;28;20485;-70
2021/01/17 00:32:37;;;;;;;3.80;3.60;;;19.60;41.50;;;;;;4993551;28;20484;-70
2021/01/17 00:35:03;;;;;;;3.60;3.40;;;19.50;41.50;;;;;;4987919;28;20488;-72
2021/01/17 00:37:29;;;;;;;3.50;3.30;;;19.50;41.70;;;;;;4991192;28;20484;-70
2021/01/17 00:39:56;;;;;;;3.33;3.13;;;19.50;41.80;;;;;;4994136;28;20488;-71
2021/01/17 00:42:22;;;;;;;4.20;3.43;;;19.50;41.90;;;;;;4989604;28;20583;-70
2021/01/17 00:44:49;;;;;;;5.17;4.77;;;19.50;41.70;;;;;;4990815;28;20494;-71
2021/01/17 00:47:16;;;;;;;3.97;3.70;;;19.50;41.70;;;;;;4992701;28;21087;-69
2021/01/17 00:49:44;;;;;;;4.20;3.90;;;19.50;41.60;;;;;;4993726;28;20485;-71
2021/01/17 00:52:15;;;;;;;4.67;3.57;;;19.50;41.50;;;;;;4980510;28;20553;-71
2021/01/17 00:54:41;;;;;;;3.70;3.50;;;19.50;41.70;;;;;;4980763;28;20484;-72
2021/01/17 00:57:08;;;;;;;3.67;3.43;;;19.50;41.60;;;;;;4992946;28;20487;-71
2021/01/17 00:59:34;;;;;;;3.83;3.60;;;19.50;41.90;;;;;;4992652;28;20493;-71
2021/01/17 01:02:02;;;;;;;4.07;3.67;;;19.50;41.90;;;;;;4990360;28;20488;-71
2021/01/17 01:04:28;;;;;;;3.83;3.60;;;19.50;41.80;;;;;;4992218;28;20488;-71
2021/01/17 01:06:54;;;;;;;4.40;4.00;;;19.50;41.80;;;;;;4990452;28;20488;-70
2021/01/17 01:09:21;;;;;;;3.93;3.67;;;19.50;41.60;;;;;;4993729;28;20489;-71
2021/01/17 01:11:47;;;;;;;3.73;3.53;;;19.50;41.60;;;;;;4989339;28;20524;-71
2021/01/17 01:14:14;;;;;;;3.30;3.10;;;19.50;41.50;;;;;;4989522;28;21241;-70
2021/01/17 01:16:40;;;;;;;4.03;3.60;;;19.60;41.60;;;;;;4992669;28;20476;-71
2021/01/17 01:19:06;;;;;;;4.23;3.70;;;19.50;41.50;;;;;;4992025;28;20477;-71
2021/01/17 01:21:33;;;;;;;4.40;4.00;;;19.50;41.50;;;;;;4992685;28;20583;-71
2021/01/17 01:23:59;;;;;;;3.63;3.43;;;19.50;41.50;;;;;;4989573;28;20496;-70
2021/01/17 01:26:26;;;;;;;3.30;3.10;;;19.50;41.60;;;;;;4994425;28;20484;-71
2021/01/17 01:28:54;;;;;;;4.17;3.87;;;19.50;41.70;;;;;;5018931;28;20496;-71
2021/01/17 01:31:21;;;;;;;4.77;4.47;;;19.40;41.70;;;;;;5013826;28;21015;-71
2021/01/17 01:33:47;;;;;;;3.63;3.33;;;19.40;41.70;;;;;;5006234;28;20473;-71
2021/01/17 01:36:20;;;;;;;3.43;3.23;;;19.40;41.70;;;;;;4991803;28;21007;-72
2021/01/17 01:38:46;;;;;;;3.67;3.37;;;19.50;41.80;;;;;;4984242;28;20497;-71
2021/01/17 01:41:12;;;;;;;4.20;3.80;;;19.50;41.70;;;;;;4994998;28;20597;-70
2021/01/17 01:43:38;;;;;;;4.00;3.70;;;19.50;41.90;;;;;;4989514;28;20492;-71
2021/01/17 01:46:05;;;;;;;3.90;3.67;;;19.40;41.90;;;;;;4985783;28;20512;-70
2021/01/17 01:48:32;;;;;;;3.97;3.67;;;19.40;41.70;;;;;;4995245;28;20500;-71
2021/01/17 01:50:58;;;;;;;4.33;4.03;;;19.40;41.80;;;;;;4996838;28;21060;-70
2021/01/17 01:53:24;;;;;;;4.83;4.43;;;19.40;42.00;;;;;;4994748;28;20910;-71
2021/01/17 01:55:51;;;;;;;4.40;3.50;;;19.40;42.70;;;;;;4985184;28;20523;-70
2021/01/17 01:58:17;;;;;;;4.83;4.37;;;19.40;41.80;;;;;;4998113;28;20492;-70
2021/01/17 02:00:43;;;;;;;4.33;3.93;;;19.40;41.80;;;;;;4988483;28;20485;-71
2021/01/17 02:03:09;;;;;;;3.87;3.63;;;19.40;41.90;;;;;;4990283;28;20481;-71
2021/01/17 02:05:36;;;;;;;3.80;3.60;;;19.40;41.90;;;;;;4989407;28;20488;-71
2021/01/17 02:08:27;;;;;;;4.87;3.90;;;19.40;41.70;;;;;;4982365;28;20493;-71
2021/01/17 02:10:53;;;;;;;3.90;3.67;;;19.40;41.80;;;;;;4988808;28;20507;-72
2021/01/17 02:13:23;;;;;;;3.90;3.40;;;19.50;41.80;;;;;;4988211;28;20499;-71
2021/01/17 02:15:49;;;;;;;3.70;3.50;;;19.50;41.70;;;;;;4989886;28;20484;-70
2021/01/17 02:18:15;;;;;;;4.63;3.43;;;19.50;41.60;;;;;;4993654;28;20496;-71
2021/01/17 02:20:42;;;;;;;3.40;3.20;;;19.50;41.60;;;;;;4992173;28;20488;-71
2021/01/17 02:23:11;;;;;;;4.80;4.00;;;19.50;41.80;;;;;;4989472;28;20486;-71
2021/01/17 02:25:39;;;;;;;3.13;2.93;;;19.50;41.70;;;;;;4990450;28;21220;-70
2021/01/17 02:28:06;;;;;;;3.67;3.47;;;19.50;41.90;;;;;;4992971;28;20468;-71
2021/01/17 02:30:34;;;;;;;3.20;3.00;;;19.60;42.00;;;;;;4987890;28;20489;-70
2021/01/17 02:33:03;;;;;;;3.43;3.23;;;19.60;42.00;;;;;;4990195;28;20621;-71
2021/01/17 02:35:30;;;;;;;4.40;4.00;;;19.60;41.90;;;;;;4990427;28;20498;-71
2021/01/17 02:37:59;;;;;;;4.50;4.20;;;19.60;41.80;;;;;;4989907;28;20488;-72
2021/01/17 02:40:42;;;;;;;3.93;3.67;;;19.50;41.70;;;;;;4991004;28;21049;-71
2021/01/17 02:43:09;;;;;;;4.70;3.77;;;19.50;41.70;;;;;;4987974;28;20499;-70
2021/01/17 02:45:35;;;;;;;4.13;3.83;;;19.50;41.70;;;;;;4992823;28;20491;-72
2021/01/17 02:48:01;;;;;;;3.43;3.23;;;19.50;41.70;;;;;;4991382;28;20531;-71
2021/01/17 02:50:28;;;;;;;3.63;3.43;;;19.50;41.70;;;;;;4991160;28;21514;-71
2021/01/17 02:52:56;;;;;;;5.20;4.03;;;19.50;42.40;;;;;;4989388;28;20497;-71
2021/01/17 02:55:22;;;;;;;3.23;3.03;;;19.50;41.70;;;;;;4989679;28;20523;-71
2021/01/17 02:57:51;;;;;;;4.00;3.60;;;19.50;41.90;;;;;;4983237;28;20543;-71
2021/01/17 03:00:18;;;;;;;4.13;3.43;;;19.50;41.90;;;;;;4987645;28;20526;-71
2021/01/17 03:02:45;;;;;;;4.33;3.90;;;19.40;41.90;;;;;;4989848;28;20475;-69
2021/01/17 03:05:12;;;;;;;4.20;3.90;;;19.40;41.60;;;;;;4988638;28;20488;-68
2021/01/17 03:07:38;;;;;;;4.40;4.10;;;19.50;41.90;;;;;;4989495;28;20568;-71
2021/01/17 03:10:06;;;;;;;4.30;4.00;;;19.40;41.70;;;;;;4989265;28;20489;-70
2021/01/17 03:12:33;;;;;;;4.20;3.90;;;19.50;41.70;;;;;;4986699;28;20481;-71
2021/01/17 03:15:01;;;;;;;4.03;3.77;;;19.50;41.60;;;;;;4988380;28;20484;-72
2021/01/17 03:17:27;;;;;;;5.40;5.00;;;19.50;41.70;;;;;;4990353;28;20477;-70
2021/01/17 03:19:53;;;;;;;4.23;3.90;;;19.50;41.70;;;;;;4990403;28;20512;-70
2021/01/17 03:22:19;;;;;;;4.07;3.67;;;19.50;41.80;;;;;;4990924;28;20486;-71
2021/01/17 03:24:45;;;;;;;4.00;3.70;;;19.50;41.70;;;;;;4989756;28;20481;-70
2021/01/17 03:27:12;;;;;;;4.50;4.10;;;19.50;41.70;;;;;;4990637;28;20476;-71
2021/01/17 03:29:38;;;;;;;4.60;4.30;;;19.50;41.70;;;;;;4988482;28;20477;-71
2021/01/17 03:32:05;;;;;;;4.07;3.77;;;19.50;41.60;;;;;;4994551;28;20573;-71
2021/01/17 03:34:31;;;;;;;4.80;4.40;;;19.40;41.70;;;;;;4989384;28;20481;-71
2021/01/17 03:36:58;;;;;;;3.97;3.77;;;19.40;41.60;;;;;;4992733;28;20552;-71
2021/01/17 03:39:24;;;;;;;4.57;4.27;;;19.40;41.80;;;;;;4995410;28;20481;-70
2021/01/17 03:41:50;;;;;;;4.07;3.80;;;19.40;41.70;;;;;;4991057;28;21138;-71
2021/01/17 03:44:16;;;;;;;4.40;4.10;;;19.40;41.80;;;;;;4992229;28;20881;-71
2021/01/17 03:46:42;;;;;;;4.07;3.77;;;19.40;41.70;;;;;;4997048;28;20484;-71
2021/01/17 03:49:09;;;;;;;4.40;4.00;;;19.40;41.60;;;;;;4994270;28;20988;-71
2021/01/17 03:51:36;;;;;;;3.80;3.50;;;19.40;41.80;;;;;;4995641;28;20610;-71
2021/01/17 03:54:02;;;;;;;4.83;4.43;;;19.40;42.00;;;;;;4990845;28;20476;-71
2021/01/17 03:56:28;;;;;;;4.73;4.30;;;19.40;41.90;;;;;;4995076;28;20494;-71
2021/01/17 03:58:54;;;;;;;3.63;3.43;;;19.40;41.90;;;;;;4991811;28;20489;-71
2021/01/17 04:01:20;;;;;;;4.93;4.53;;;19.40;41.80;;;;;;4990832;28;20493;-71
2021/01/17 04:03:46;;;;;;;4.80;4.40;;;19.40;41.70;;;;;;4992750;28;20513;-71
2021/01/17 04:06:14;;;;;;;4.20;3.90;;;19.40;41.70;;;;;;4991886;28;21032;-70
2021/01/17 04:08:40;;;;;;;4.17;3.80;;;19.40;41.80;;;;;;4995501;28;21053;-70
2021/01/17 04:11:06;;;;;;;4.27;3.90;;;19.40;41.70;;;;;;4994482;28;20498;-71
2021/01/17 04:13:32;;;;;;;4.47;4.07;;;19.40;41.70;;;;;;4990368;28;20496;-71
2021/01/17 04:15:58;;;;;;;4.30;3.93;;;19.40;41.80;;;;;;4992867;28;20544;-71
2021/01/17 04:18:24;;;;;;;4.60;4.20;;;19.40;41.80;;;;;;4984422;28;20496;-71
2021/01/17 04:20:50;;;;;;;3.97;3.70;;;19.40;41.60;;;;;;4994386;28;20518;-71
2021/01/17 04:23:17;;;;;;;4.37;4.07;;;19.40;41.70;;;;;;4988523;28;20546;-71
2021/01/17 04:25:43;;;;;;;4.37;4.07;;;19.40;41.60;;;;;;4994640;28;21045;-71
2021/01/17 04:28:10;;;;;;;3.90;3.60;;;19.40;41.60;;;;;;4981218;28;20500;-70
2021/01/17 04:30:36;;;;;;;4.27;3.97;;;19.40;41.70;;;;;;4990505;28;20691;-70
2021/01/17 04:33:03;;;;;;;3.80;3.50;;;19.30;41.70;;;;;;4983088;28;20493;-70
2021/01/17 04:35:29;;;;;;;4.23;3.93;;;19.30;41.80;;;;;;4987181;28;20531;-72
2021/01/17 04:37:56;;;;;;;3.73;3.43;;;19.30;41.50;;;;;;5000924;28;20491;-71
2021/01/17 04:40:23;;;;;;;4.40;4.00;;;19.30;41.70;;;;;;4994200;28;20596;-72
2021/01/17 04:42:49;;;;;;;4.60;4.30;;;19.30;41.80;;;;;;4988998;28;20483;-71
2021/01/17 04:45:17;;;;;;;4.80;4.40;;;19.30;41.80;;;;;;4992122;28;21314;-71
2021/01/17 04:47:45;;;;;;;3.70;3.40;;;19.30;41.90;;;;;;4995196;28;20512;-71
2021/01/17 04:50:12;;;;;;;5.10;4.50;;;19.30;41.60;;;;;;4988293;28;20555;-71
2021/01/17 04:52:41;;;;;;;4.70;4.40;;;19.30;41.60;;;;;;4991368;28;20480;-72
2021/01/17 04:55:09;;;;;;;4.60;4.30;;;19.40;41.60;;;;;;4991127;28;22072;-71
2021/01/17 04:57:38;;;;;;;4.10;3.90;;;19.40;41.80;;;;;;4994287;28;20489;-71
2021/01/17 05:00:06;;;;;;;4.93;4.43;;;19.40;41.90;;;;;;4992560;28;20537;-71
2021/01/17 05:02:33;;;;;;;4.00;3.73;;;19.40;41.90;;;;;;5000949;28;20529;-72
2021/01/17 05:05:14;;;;;;;4.17;3.90;;;19.40;41.70;;;;;;5019327;28;20484;-71
2021/01/17 05:07:50;;;;;;;4.90;4.40;;;19.40;41.70;;;;;;5004247;28;21394;-71
2021/01/17 05:10:26;;;;;;;3.77;3.47;;;19.40;41.60;;;;;;4996148;28;20506;-71
2021/01/17 05:12:53;;;;;;;4.77;4.40;;;19.40;41.50;;;;;;4994877;28;20485;-70
2021/01/17 05:15:20;;;;;;;4.10;3.83;;;19.40;41.70;;;;;;4995957;28;20492;-70
2021/01/17 05:17:46;;;;;;;5.70;4.93;;;19.30;41.60;;;;;;4998881;28;20484;-71
2021/01/17 05:20:13;;;;;;;4.47;4.17;;;19.30;41.60;;;;;;4991826;28;20487;-70
2021/01/17 05:22:39;;;;;;;4.60;4.30;;;19.30;41.70;;;;;;4988985;28;20489;-70
2021/01/17 05:25:07;;;;;;;4.77;4.37;;;19.30;42.00;;;;;;4992665;28;20483;-71
2021/01/17 05:27:33;;;;;;;3.67;3.43;;;19.30;41.70;;;;;;4997172;28;20511;-71
2021/01/17 05:30:00;;;;;;;5.00;4.30;;;19.40;41.70;;;;;;4991410;28;20480;-70
2021/01/17 05:32:26;;;;;;;4.50;4.20;;;19.40;41.70;;;;;;4993415;28;20511;-70
2021/01/17 05:34:52;;;;;;;3.70;3.50;;;19.40;41.50;;;;;;4980694;28;20485;-71
2021/01/17 05:37:19;;;;;;;4.80;4.37;;;19.40;41.60;;;;;;4992903;28;20478;-71
2021/01/17 05:39:55;;;;;;;4.20;3.90;;;19.40;41.60;;;;;;4994600;28;20477;-71
2021/01/17 05:42:22;;;;;;;4.00;3.70;;;19.50;41.50;;;;;;4988970;28;20488;-71
2021/01/17 05:44:48;;;;;;;5.23;4.83;;;19.50;41.50;;;;;;4990391;28;20484;-70
2021/01/17 05:47:20;;;;;;;4.20;3.90;;;19.50;41.40;;;;;;4991152;28;20496;-71
2021/01/17 05:49:46;;;;;;;4.20;3.90;;;19.50;41.30;;;;;;4990366;28;20499;-71
2021/01/17 05:52:13;;;;;;;4.70;4.37;;;19.50;41.20;;;;;;4990684;28;20491;-71
2021/01/17 05:54:40;;;;;;;4.80;4.40;;;19.40;41.30;;;;;;4995652;28;20500;-70
2021/01/17 05:57:14;;;;;;;4.10;3.80;;;19.40;41.40;;;;;;4992214;28;20501;-70
2021/01/17 05:59:40;;;;;;;3.80;3.50;;;19.40;41.70;;;;;;4988903;28;20900;-70
2021/01/17 06:02:12;;;;;;;5.30;4.53;;;19.40;41.60;;;;;;4990262;28;21544;-71
2021/01/17 06:04:40;;;;;;;4.70;3.90;;;19.40;42.50;;;;;;4989889;28;20470;-71
2021/01/17 06:07:07;;;;;;;4.80;4.40;;;19.40;41.40;;;;;;4991045;28;20492;-71
2021/01/17 06:09:34;;;;;;;4.13;3.87;;;19.40;41.60;;;;;;4993879;28;20492;-70
2021/01/17 06:12:00;;;;;;;5.37;4.87;;;19.40;41.40;;;;;;4989944;28;20485;-71
2021/01/17 06:14:26;;;;;;;4.23;3.93;;;19.30;41.40;;;;;;4988204;28;20485;-71
2021/01/17 06:16:57;;;;;;;5.47;4.97;;;19.40;41.20;;;;;;4990892;28;20484;-71
2021/01/17 06:19:30;;;;;;;4.23;3.93;;;19.50;41.10;;;;;;4990567;28;20482;-71
2021/01/17 06:21:59;;;;;;;4.60;4.00;;;19.50;40.90;;;;;;4995502;28;21019;-71
2021/01/17 06:24:33;;;;;;;4.17;3.87;;;19.50;41.60;;;;;;4989063;28;20551;-70
2021/01/17 06:26:59;;;;;;;4.03;3.83;;;19.50;40.90;;;;;;4990727;28;20496;-71
2021/01/17 06:29:34;;;;;;;4.73;4.43;;;19.60;40.90;;;;;;4988797;28;20485;-71
2021/01/17 06:32:08;;;;;;;5.00;3.93;;;19.60;40.70;;;;;;4988945;28;21018;-71
2021/01/17 06:34:34;;;;;;;4.73;4.00;;;19.70;40.70;;;;;;4989893;28;20496;-71
2021/01/17 06:37:06;;;;;;;5.00;4.50;;;19.70;40.50;;;;;;4988815;28;20490;-70
2021/01/17 06:39:32;;;;;;;6.63;4.10;;;19.80;40.70;;;;;;4984137;28;21741;-71
2021/01/17 06:41:58;;;;;;;4.53;4.13;;;19.80;40.50;;;;;;4990735;28;20485;-71
2021/01/17 06:44:27;;;;;;;3.70;3.50;;;19.80;40.60;;;;;;4989107;28;20480;-72
2021/01/17 06:46:53;;;;;;;4.10;3.70;;;19.70;40.60;;;;;;4990383;28;20614;-72
2021/01/17 06:49:21;;;;;;;6.60;5.13;;;19.70;40.60;;;;;;4991880;28;20625;-71
2021/01/17 06:51:47;;;;;;;3.97;3.73;;;19.70;40.70;;;;;;4986722;28;20492;-70
2021/01/17 06:54:16;;;;;;;4.07;3.77;;;19.60;40.50;;;;;;4989488;28;20484;-71
2021/01/17 06:56:42;;;;;;;4.37;3.87;;;19.60;40.60;;;;;;4998786;28;20480;-71
2021/01/17 06:59:08;;;;;;;4.23;3.87;;;19.60;40.70;;;;;;4991954;28;20870;-71
2021/01/17 07:01:35;;;;;;;4.57;4.27;;;19.60;40.70;;;;;;4979645;28;20565;-71
2021/01/17 07:04:15;;;;;;;4.00;3.70;;;19.60;40.60;;;;;;4989495;28;20497;-70
2021/01/17 07:06:56;;;;;;;4.50;4.10;;;19.60;40.60;;;;;;4990403;28;20483;-71
2021/01/17 07:09:25;;;;;;;5.53;5.03;;;19.60;40.70;;;;;;4988172;28;20489;-70
2021/01/17 07:11:59;;;;;;;4.20;3.67;;;19.60;40.60;;;;;;4984552;28;20950;-70
2021/01/17 07:14:29;;;;;;;4.60;4.20;;;19.60;40.80;;;;;;4990371;28;20487;-71
2021/01/17 07:16:56;;;;;;;4.87;3.60;;;19.60;40.70;;;;;;4991154;28;20511;-71
2021/01/17 07:19:22;;;;;;;4.97;4.67;;;19.60;40.70;;;;;;4990530;28;20563;-71
2021/01/17 07:21:49;;;;;;;4.33;4.03;;;19.70;40.60;;;;;;4990689;28;20495;-70
2021/01/17 07:24:15;;;;;;;4.13;3.83;;;19.80;40.50;;;;;;4989926;28;20488;-72
2021/01/17 07:27:04;;;;;;;4.80;4.20;;;19.80;40.50;;;;;;4992306;28;20481;-69
2021/01/17 07:29:30;;;;;;;4.57;4.20;;;19.70;40.20;;;;;;4981065;28;20485;-71
2021/01/17 07:31:56;;;;;;;4.33;3.57;;;19.70;40.30;;;;;;4988153;28;20488;-72
2021/01/17 07:34:23;;;;;;;4.47;4.07;;;19.70;40.20;;;;;;4981839;28;20512;-71
2021/01/17 07:36:49;;;;;;;5.30;4.90;;;19.70;40.10;;;;;;4992305;28;20542;-71
2021/01/17 07:39:20;;;;;;;4.53;4.17;;;19.80;40.10;;;;;;4989625;28;20503;-71
2021/01/17 07:41:47;;;;;;;5.10;4.00;;;19.80;40.10;;;;;;4989176;28;20476;-71
2021/01/17 07:44:18;;;;;;;4.53;4.23;;;19.80;40.10;;;;;;4990084;28;20487;-71
2021/01/17 07:46:45;;;;;;;4.97;4.57;;;19.80;40.00;;;;;;4980932;28;20546;-71
2021/01/17 07:49:11;;;;;;;4.80;4.40;;;19.80;40.00;;;;;;4991278;28;21349;-71
2021/01/17 07:51:38;;;;;;;4.40;4.00;;;19.80;40.20;;;;;;4991616;28;20473;-72
2021/01/17 07:54:05;;;;;;;4.43;4.03;;;19.80;40.10;;;;;;4987749;28;20573;-70
2021/01/17 07:56:33;;;;;;;5.07;4.57;;;19.80;40.10;;;;;;4992161;28;20485;-70
2021/01/17 07:59:00;;;;;;;4.23;3.90;;;19.80;40.10;;;;;;4989885;28;20488;-71
2021/01/17 08:01:46;;;;;;;4.20;3.90;;;19.90;40.10;;;;;;4987084;28;20488;-70
2021/01/17 08:04:28;;;;;;;4.83;4.43;;;19.80;40.00;;;;;;4978958;28;20996;-71
2021/01/17 08:06:55;;;;;;;4.43;4.13;;;19.80;40.00;;;;;;4989286;28;21430;-71
2021/01/17 08:09:54;;;;;;;4.20;3.90;;;19.80;40.00;;;;;;4990226;28;20504;-70
2021/01/17 08:12:40;;;;;;;4.43;4.07;;;19.80;40.00;;;;;;4910762;29;20541;-71
2021/01/17 08:15:19;;;;;;;4.23;3.93;;;19.80;40.00;;;;;;4908860;29;20481;-71
2021/01/17 08:17:46;;;;;;;4.53;4.23;;;19.80;40.00;;;;;;4953011;28;20480;-71
2021/01/17 08:20:27;;;;;;;4.17;3.87;;;19.80;40.10;;;;;;4980662;28;20477;-72
2021/01/17 08:23:09;;;;;;;4.17;3.97;;;19.80;40.10;;;;;;4988803;28;20491;-71
2021/01/17 08:25:54;;;;;;;3.50;3.23;;;19.90;40.10;;;;;;4994952;28;20508;-71
2021/01/17 08:28:37;;;;;;;4.40;4.10;;;19.90;40.00;;;;;;4983050;28;20512;-71
2021/01/17 08:31:40;;;;;;;4.13;3.73;;;19.90;39.90;;;;;;5003176;28;20505;-69
2021/01/17 08:34:18;;;;;;;4.50;4.10;;;19.90;39.80;;;;;;4988724;28;20480;-71
2021/01/17 08:36:45;;;;;;;5.00;4.60;;;19.90;39.80;;;;;;4997266;28;20472;-71
2021/01/17 08:39:11;;;;;;;4.47;4.07;;;19.90;39.90;;;;;;5020998;28;20456;-72
2021/01/17 08:41:39;;;;;;;5.63;4.40;;;19.80;39.90;;;;;;5015835;28;21495;-71
2021/01/17 08:44:07;;;;;;;4.30;4.00;;;19.80;39.80;;;;;;4993628;28;20460;-70
2021/01/17 08:46:38;;;;;;;4.20;3.93;;;19.80;39.80;;;;;;4999075;28;21027;-71
2021/01/17 08:49:05;;;;;;;4.90;4.53;;;19.80;39.90;;;;;;4995938;28;20496;-71
2021/01/17 08:51:32;;;;;;;4.33;4.00;;;19.70;39.80;;;;;;4991752;28;20488;-70
2021/01/17 08:54:31;;;;;;;3.57;3.37;;;19.70;39.80;;;;;;4983154;28;20496;-71
2021/01/17 08:56:57;;;;;;;4.60;4.30;;;19.70;40.70;;;;;;4987512;28;20515;-71
2021/01/17 08:59:36;;;;;;;4.47;3.93;;;19.70;39.80;;;;;;4991913;28;20628;-70
2021/01/17 09:02:02;;;;;;;4.03;3.73;;;19.70;39.80;;;;;;4993246;28;20492;-71
2021/01/17 09:04:29;;;;;;;4.00;3.70;;;19.70;39.70;;;;;;4992818;28;20491;-71
2021/01/17 09:06:56;;;;;;;4.10;3.40;;;19.70;39.80;;;;;;4989216;28;20815;-71
2021/01/17 09:09:23;;;;;;;4.70;4.30;;;19.70;39.80;;;;;;4995978;28;20481;-71
2021/01/17 09:11:49;;;;;;;4.13;3.83;;;19.70;40.00;;;;;;4990808;28;20479;-70
2021/01/17 09:14:23;;;;;;;4.27;3.93;;;19.80;39.80;;;;;;4993176;28;20478;-70
2021/01/17 09:16:50;;;;;;;4.60;4.30;;;19.80;39.80;;;;;;4989340;28;20988;-71
2021/01/17 09:19:17;;;;;;;5.07;4.27;;;19.80;39.90;;;;;;4994075;28;21001;-71
2021/01/17 09:21:43;;;;;;;4.27;3.93;;;19.80;39.90;;;;;;4993443;28;20472;-71
2021/01/17 09:24:13;;;;;;;4.13;3.80;;;19.80;39.80;;;;;;4989401;28;20472;-70
2021/01/17 09:26:41;;;;;;;4.07;3.77;;;19.90;39.80;;;;;;4996269;28;20484;-71
2021/01/17 09:29:07;;;;;;;4.20;3.90;;;19.80;39.80;;;;;;4990866;28;20505;-71
2021/01/17 09:31:33;;;;;;;5.23;4.33;;;19.80;39.60;;;;;;4990299;28;20571;-71
2021/01/17 09:33:59;;;;;;;3.73;3.50;;;19.80;39.40;;;;;;4990320;28;20485;-71
2021/01/17 09:36:25;;;;;;;4.20;3.90;;;19.80;39.70;;;;;;4990335;28;20543;-71
2021/01/17 09:38:52;;;;;;;5.10;4.37;;;19.80;39.60;;;;;;4992327;28;20485;-71
2021/01/17 09:41:23;;;;;;;3.93;3.63;;;19.90;39.70;;;;;;4989948;28;20484;-70
2021/01/17 09:43:50;;;;;;;3.87;3.67;;;19.90;39.70;;;;;;4985585;28;20884;-71
2021/01/17 09:46:19;;;;;;;4.10;3.80;;;19.90;39.70;;;;;;4993975;28;20545;-70
2021/01/17 09:48:53;;;;;;;4.17;3.77;;;19.90;39.60;;;;;;4965545;28;20560;-71
2021/01/17 09:51:20;;;;;;;3.70;3.50;;;19.90;39.50;;;;;;4971565;28;20490;-70
2021/01/17 09:53:46;;;;;;;4.10;3.67;;;19.90;39.60;;;;;;4970686;28;20484;-71
2021/01/17 09:56:12;;;;;;;4.23;3.60;;;19.90;39.50;;;;;;4960551;28;20482;-71
2021/01/17 09:58:39;;;;;;;4.60;4.20;;;19.80;39.60;;;;;;4971017;28;21516;-71
2021/01/17 10:01:05;;;;;;;4.80;4.40;;;19.80;39.60;;;;;;4969485;28;20537;-71
2021/01/17 10:03:31;;;;;;;4.07;3.77;;;19.80;39.50;;;;;;4972659;28;20888;-71
2021/01/17 10:05:57;;;;;;;3.67;3.47;;;19.80;39.60;;;;;;4974791;28;20908;-72
2021/01/17 10:08:24;;;;;;;4.00;3.50;;;19.80;39.60;;;;;;4974430;28;20498;-71
2021/01/17 10:10:50;;;;;;;3.77;3.53;;;19.80;39.60;;;;;;4974108;28;20485;-70
2021/01/17 10:13:16;;;;;;;4.20;3.80;;;19.80;39.60;;;;;;4970326;28;20535;-71
2021/01/17 10:15:43;;;;;;;3.90;3.70;;;19.80;39.70;;;;;;4975921;28;20484;-71
2021/01/17 10:18:09;;;;;;;3.73;3.37;;;19.80;39.60;;;;;;4992368;28;20485;-71
2021/01/17 10:20:38;;;;;;;4.10;3.80;;;19.80;39.70;;;;;;4985450;28;20481;-71
2021/01/17 10:23:05;;;;;;;3.00;2.83;;;19.80;39.80;;;;;;5001992;28;20855;-70
2021/01/17 10:25:31;;;;;;;4.47;4.10;;;19.80;39.70;;;;;;4990752;28;20544;-71
2021/01/17 10:27:58;;;;;;;5.10;3.97;;;19.90;39.80;;;;;;4979308;28;21040;-71
2021/01/17 10:30:24;;;;;;;4.67;4.20;;;19.80;39.70;;;;;;4988645;28;20480;-71
2021/01/17 10:32:51;;;;;;;3.90;3.60;;;19.80;39.70;;;;;;4991311;28;20492;-71
2021/01/17 10:35:21;;;;;;;4.70;3.10;;;19.80;39.70;;;;;;4989553;28;20861;-71
2021/01/17 10:37:48;;;;;;;4.57;4.23;;;19.80;39.70;;;;;;4988512;28;20554;-71
2021/01/17 10:40:15;;;;;;;5.70;4.20;;;19.80;39.70;;;;;;4990665;28;20493;-71
2021/01/17 10:42:41;;;;;;;4.73;4.33;;;19.70;39.60;;;;;;4978588;28;20492;-71
2021/01/17 10:45:08;;;;;;;4.37;4.10;;;19.80;39.80;;;;;;4989097;28;20531;-71
2021/01/17 10:47:43;;;;;;;4.50;4.10;;;19.70;39.70;;;;;;4988425;28;21060;-71
2021/01/17 10:50:11;;;;;;;3.67;3.37;;;19.70;39.70;;;;;;4989222;28;20499;-70
2021/01/17 10:52:40;;;;;;;3.87;3.63;;;19.80;40.00;;;;;;4988591;28;20826;-70
2021/01/17 10:55:06;;;;;;;5.13;3.13;;;19.80;40.00;;;;;;4993741;28;20495;-71
2021/01/17 10:57:34;;;;;;;3.73;3.43;;;19.80;39.90;;;;;;4989453;28;20489;-71
2021/01/17 11:00:05;;;;;;;3.63;3.43;;;19.80;40.00;;;;;;4989637;28;20485;-72
2021/01/17 11:02:31;;;;;;;3.20;3.00;;;19.80;39.80;;;;;;4988772;28;20603;-70
2021/01/17 11:04:57;;;;;;;5.43;3.50;;;19.80;39.90;;;;;;4988383;28;20489;-70
2021/01/17 11:07:27;;;;;;;3.47;3.17;;;19.80;39.90;;;;;;4990254;28;20489;-72
2021/01/17 11:09:54;;;;;;;3.40;3.20;;;19.80;39.70;;;;;;4988761;28;20481;-70
2021/01/17 11:12:36;;;;;;;4.33;3.93;;;19.80;39.70;;;;;;4990309;28;20490;-70
2021/01/17 11:15:14;;;;;;;3.80;3.60;;;19.80;39.60;;;;;;4988559;28;20552;-71
2021/01/17 11:17:42;;;;;;;4.80;4.50;;;19.80;39.70;;;;;;4987149;28;20487;-71
2021/01/17 11:20:09;;;;;;;5.10;3.43;;;19.80;40.50;;;;;;4988771;28;20896;-72
2021/01/17 11:22:36;;;;;;;3.73;3.47;;;19.80;39.70;;;;;;4989917;28;20861;-71
2021/01/17 11:25:03;;;;;;;3.43;3.23;;;19.80;39.70;;;;;;4988563;28;20839;-70
2021/01/17 11:27:35;;;;;;;5.23;3.73;;;19.80;39.70;;;;;;4988963;28;20494;-71
2021/01/17 11:30:01;;;;;;;4.50;4.20;;;19.70;39.70;;;;;;4989346;28;20528;-71
2021/01/17 11:32:31;;;;;;;3.20;3.00;;;19.80;39.70;;;;;;4987841;28;20527;-71
2021/01/17 11:34:57;;;;;;;3.83;3.47;;;19.70;39.60;;;;;;4989128;28;20504;-71
2021/01/17 11:37:31;;;;;;;4.37;4.07;;;19.80;39.70;;;;;;4988916;28;20492;-71
2021/01/17 11:40:04;;;;;;;4.10;3.90;;;19.80;39.70;;;;;;4985814;28;20542;-71
2021/01/17 11:42:31;;;;;;;4.20;3.90;;;19.80;39.60;;;;;;4989996;28;21139;-71
2021/01/17 11:44:57;;;;;;;3.23;3.13;;;19.80;39.60;;;;;;4988308;28;20914;-71
2021/01/17 11:47:23;;;;;;;4.60;3.60;;;19.80;39.60;;;;;;4988118;28;20485;-71
2021/01/17 11:49:50;;;;;;;4.00;3.80;;;19.80;39.70;;;;;;4981500;28;20496;-71
2021/01/17 11:52:16;;;;;;;4.30;3.47;;;19.80;39.80;;;;;;4989513;28;20996;-71
2021/01/17 11:54:42;;;;;;;3.90;3.50;;;19.80;39.70;;;;;;4989494;28;20500;-70
2021/01/17 11:57:10;;;;;;;3.27;2.97;;;19.80;39.60;;;;;;4989203;28;20492;-70
2021/01/17 11:59:36;;;;;;;4.10;3.70;;;19.80;39.70;;;;;;4995507;28;20480;-71
2021/01/17 12:02:18;;;;;;;3.43;3.23;;;19.80;39.80;;;;;;4992745;28;20510;-71
2021/01/17 12:04:45;;;;;;;4.30;3.90;;;19.80;39.60;;;;;;4987537;28;20695;-72
2021/01/17 12:07:11;;;;;;;4.60;3.47;;;19.80;39.50;;;;;;4994150;28;20508;-71
2021/01/17 12:09:38;;;;;;;4.57;4.20;;;19.80;39.40;;;;;;5009157;28;20476;-71
2021/01/17 12:12:15;;;;;;;3.00;2.80;;;19.80;39.60;;;;;;5014990;28;20473;-71
2021/01/17 12:14:41;;;;;;;3.87;3.60;;;19.70;40.40;;;;;;5000663;28;20484;-70
2021/01/17 12:17:08;;;;;;;4.10;3.80;;;19.80;39.70;;;;;;4991675;28;20488;-70
2021/01/17 12:19:36;;;;;;;3.47;3.30;;;19.80;39.60;;;;;;4981845;28;20487;-71
2021/01/17 12:22:02;;;;;;;4.10;3.80;;;19.80;39.60;;;;;;4992310;28;20488;-71
2021/01/17 12:24:29;;;;;;;3.40;3.20;;;19.90;39.70;;;;;;4987613;28;20489;-71
2021/01/17 12:26:55;;;;;;;4.20;3.87;;;19.90;39.50;;;;;;4994963;28;20485;-70
2021/01/17 12:29:22;;;;;;;3.57;3.37;;;19.80;39.40;;;;;;4993909;28;20527;-70
2021/01/17 12:31:49;;;;;;;3.47;3.27;;;19.80;39.50;;;;;;4999507;28;20484;-71
2021/01/17 12:34:15;;;;;;;4.00;3.70;;;19.80;39.60;;;;;;4994597;28;20488;-71
2021/01/17 12:36:43;;;;;;;4.57;4.20;;;19.80;39.40;;;;;;4991470;28;20499;-71
2021/01/17 12:39:10;;;;;;;3.93;3.03;;;19.80;39.60;;;;;;4993135;28;20543;-70
2021/01/17 12:41:38;;;;;;;3.53;3.23;;;19.80;39.50;;;;;;4998419;28;20500;-71
2021/01/17 12:44:05;;;;;;;3.67;3.40;;;19.80;39.60;;;;;;4984507;28;20488;-70
2021/01/17 12:46:32;;;;;;;3.13;3.03;;;19.80;39.60;;;;;;4993608;28;20492;-71
2021/01/17 12:48:58;;;;;;;4.03;3.70;;;19.90;39.60;;;;;;4991215;28;20481;-70
2021/01/17 12:51:24;;;;;;;4.00;3.70;;;19.90;39.70;;;;;;4990824;28;20564;-71
2021/01/17 12:53:51;;;;;;;3.13;3.00;;;19.90;39.60;;;;;;4990326;28;20499;-71